sensor_id;sensor_type;location;lat;lon;timestamp;P1;P2;P0
69746;PMS7003;57018;50.278;19.134;2022-10-18T00:01:16;61.00;48.50;32.00
69746;PMS7003;57018;50.278;19.134;2022-10-18T00:03:43;68.50;51.50;33.50
69746;PMS7003;57018;50.278;19.134;2022-10-18T00:06:09;67.00;51.00;34.25
69746;PMS7003;57018;50.278;19.134;2022-10-18T00:08:35;62.00;47.00;31.00
69746;PMS7003;57018;50.278;19.134;2022-10-18T00:11:03;65.00;48.00;31.00
69746;PMS7003;57018;50.278;19.134;2022-10-18T00:13:30;64.50;51.00;34.00
69746;PMS7003;57018;50.278;19.134;2022-10-18T00:15:58;65.00;51.50;32.75
69746;PMS7003;57018;50.278;19.134;2022-10-18T00:18:26;59.00;48.50;31.50
69746;PMS7003;57018;50.278;19.134;2022-10-18T00:21:04;64.75;49.00;32.50
69746;PMS7003;57018;50.278;19.134;2022-10-18T00:23:35;59.25;47.50;31.00
69746;PMS7003;57018;50.278;19.134;2022-10-18T00:26:09;64.25;49.25;32.50
69746;PMS7003;57018;50.278;19.134;2022-10-18T00:28:37;65.50;51.50;34.25
69746;PMS7003;57018;50.278;19.134;2022-10-18T00:33:43;62.50;50.50;34.00
69746;PMS7003;57018;50.278;19.134;2022-10-18T00:36:11;64.25;50.00;33.50
69746;PMS7003;57018;50.278;19.134;2022-10-18T00:38:38;63.00;51.00;34.25
69746;PMS7003;57018;50.278;19.134;2022-10-18T00:41:06;64.25;50.25;32.25
69746;PMS7003;57018;50.278;19.134;2022-10-18T00:46:28;67.00;52.25;34.75
69746;PMS7003;57018;50.278;19.134;2022-10-18T00:49:04;70.00;54.00;37.00
69746;PMS7003;57018;50.278;19.134;2022-10-18T00:51:26;67.00;51.25;34.25
69746;PMS7003;57018;50.278;19.134;2022-10-18T00:53:54;72.25;54.00;35.25
69746;PMS7003;57018;50.278;19.134;2022-10-18T00:56:21;68.00;54.25;37.00
69746;PMS7003;57018;50.278;19.134;2022-10-18T00:58:47;70.75;56.00;35.00
69746;PMS7003;57018;50.278;19.134;2022-10-18T01:01:16;67.50;53.50;36.25
69746;PMS7003;57018;50.278;19.134;2022-10-18T01:03:42;65.75;53.00;34.75
69746;PMS7003;57018;50.278;19.134;2022-10-18T01:06:09;64.00;52.00;34.00
69746;PMS7003;57018;50.278;19.134;2022-10-18T01:14:16;69.00;53.50;34.50
69746;PMS7003;57018;50.278;19.134;2022-10-18T01:16:50;68.25;53.00;35.00
69746;PMS7003;57018;50.278;19.134;2022-10-18T01:22:23;67.50;51.75;35.50
69746;PMS7003;57018;50.278;19.134;2022-10-18T01:31:05;63.75;51.50;33.25
69746;PMS7003;57018;50.278;19.134;2022-10-18T01:35:41;59.75;49.25;32.00
69746;PMS7003;57018;50.278;19.134;2022-10-18T01:38:10;60.50;49.25;31.75
69746;PMS7003;57018;50.278;19.134;2022-10-18T01:40:41;58.50;47.00;30.00
69746;PMS7003;57018;50.278;19.134;2022-10-18T01:43:10;56.75;45.50;30.75
69746;PMS7003;57018;50.278;19.134;2022-10-18T01:45:38;55.50;45.25;30.00
69746;PMS7003;57018;50.278;19.134;2022-10-18T01:48:06;53.75;42.00;29.00
69746;PMS7003;57018;50.278;19.134;2022-10-18T01:50:33;58.50;46.50;30.50
69746;PMS7003;57018;50.278;19.134;2022-10-18T01:53:00;57.00;43.75;28.75
69746;PMS7003;57018;50.278;19.134;2022-10-18T01:55:30;62.50;46.25;30.75
69746;PMS7003;57018;50.278;19.134;2022-10-18T01:58:17;53.50;43.25;28.00
69746;PMS7003;57018;50.278;19.134;2022-10-18T02:00:40;52.75;43.25;29.00
69746;PMS7003;57018;50.278;19.134;2022-10-18T02:05:39;51.50;43.25;29.00
69746;PMS7003;57018;50.278;19.134;2022-10-18T02:11:03;54.00;42.25;31.00
69746;PMS7003;57018;50.278;19.134;2022-10-18T02:13:33;54.75;44.75;28.75
69746;PMS7003;57018;50.278;19.134;2022-10-18T02:16:18;53.00;42.75;29.50
69746;PMS7003;57018;50.278;19.134;2022-10-18T02:18:47;52.00;43.25;28.50
69746;PMS7003;57018;50.278;19.134;2022-10-18T02:21:16;46.25;38.50;25.75
69746;PMS7003;57018;50.278;19.134;2022-10-18T02:23:44;54.50;44.00;29.00
69746;PMS7003;57018;50.278;19.134;2022-10-18T02:26:11;52.75;42.25;28.75
69746;PMS7003;57018;50.278;19.134;2022-10-18T02:28:38;55.25;42.75;29.75
69746;PMS7003;57018;50.278;19.134;2022-10-18T02:36:53;54.25;44.50;29.75
69746;PMS7003;57018;50.278;19.134;2022-10-18T02:39:31;57.25;45.50;30.75
69746;PMS7003;57018;50.278;19.134;2022-10-18T02:41:59;45.75;38.50;25.75
69746;PMS7003;57018;50.278;19.134;2022-10-18T02:44:26;53.25;43.25;26.25
69746;PMS7003;57018;50.278;19.134;2022-10-18T02:46:52;53.00;42.50;29.25
69746;PMS7003;57018;50.278;19.134;2022-10-18T02:49:18;50.50;41.50;26.75
69746;PMS7003;57018;50.278;19.134;2022-10-18T02:51:44;45.75;38.75;25.25
69746;PMS7003;57018;50.278;19.134;2022-10-18T02:54:10;52.75;43.00;27.25
69746;PMS7003;57018;50.278;19.134;2022-10-18T02:56:36;35.75;33.00;23.75
69746;PMS7003;57018;50.278;19.134;2022-10-18T02:59:03;44.50;36.25;24.00
69746;PMS7003;57018;50.278;19.134;2022-10-18T03:01:30;43.50;35.75;23.75
69746;PMS7003;57018;50.278;19.134;2022-10-18T03:03:57;34.25;33.00;23.50
69746;PMS7003;57018;50.278;19.134;2022-10-18T03:06:23;35.00;32.75;23.00
69746;PMS7003;57018;50.278;19.134;2022-10-18T03:08:49;38.00;35.00;23.50
69746;PMS7003;57018;50.278;19.134;2022-10-18T03:11:15;43.00;34.75;24.00
69746;PMS7003;57018;50.278;19.134;2022-10-18T03:13:42;41.25;36.00;23.25
69746;PMS7003;57018;50.278;19.134;2022-10-18T03:16:08;43.25;35.75;25.00
69746;PMS7003;57018;50.278;19.134;2022-10-18T03:18:34;42.00;37.25;24.50
69746;PMS7003;57018;50.278;19.134;2022-10-18T03:21:04;53.00;41.25;25.75
69746;PMS7003;57018;50.278;19.134;2022-10-18T03:23:31;41.25;36.25;24.00
69746;PMS7003;57018;50.278;19.134;2022-10-18T03:25:57;38.00;35.25;23.00
69746;PMS7003;57018;50.278;19.134;2022-10-18T03:28:23;42.50;34.00;22.00
69746;PMS7003;57018;50.278;19.134;2022-10-18T03:30:49;37.75;34.00;22.50
69746;PMS7003;57018;50.278;19.134;2022-10-18T03:33:16;27.25;25.50;19.00
69746;PMS7003;57018;50.278;19.134;2022-10-18T03:35:42;49.00;38.00;24.50
69746;PMS7003;57018;50.278;19.134;2022-10-18T03:38:08;47.00;38.00;24.75
69746;PMS7003;57018;50.278;19.134;2022-10-18T03:40:34;33.75;32.25;21.75
69746;PMS7003;57018;50.278;19.134;2022-10-18T03:43:00;33.75;32.25;22.25
69746;PMS7003;57018;50.278;19.134;2022-10-18T03:45:26;35.50;33.00;24.00
69746;PMS7003;57018;50.278;19.134;2022-10-18T03:47:52;34.00;32.00;19.50
69746;PMS7003;57018;50.278;19.134;2022-10-18T03:50:18;35.00;31.75;22.25
69746;PMS7003;57018;50.278;19.134;2022-10-18T03:52:45;35.75;34.25;22.50
69746;PMS7003;57018;50.278;19.134;2022-10-18T03:55:11;27.75;26.50;19.50
69746;PMS7003;57018;50.278;19.134;2022-10-18T03:57:37;29.75;26.00;21.75
69746;PMS7003;57018;50.278;19.134;2022-10-18T04:00:03;30.75;27.75;18.50
69746;PMS7003;57018;50.278;19.134;2022-10-18T04:02:31;34.25;31.50;22.00
69746;PMS7003;57018;50.278;19.134;2022-10-18T04:04:57;32.00;28.25;18.00
69746;PMS7003;57018;50.278;19.134;2022-10-18T04:07:23;33.75;29.75;18.50
69746;PMS7003;57018;50.278;19.134;2022-10-18T04:09:49;31.50;28.50;20.00
69746;PMS7003;57018;50.278;19.134;2022-10-18T04:12:15;26.25;26.25;19.25
69746;PMS7003;57018;50.278;19.134;2022-10-18T04:14:41;28.50;25.75;18.00
69746;PMS7003;57018;50.278;19.134;2022-10-18T04:17:07;28.25;27.75;20.25
69746;PMS7003;57018;50.278;19.134;2022-10-18T04:19:33;31.75;29.25;18.75
69746;PMS7003;57018;50.278;19.134;2022-10-18T04:22:00;32.25;28.00;20.25
69746;PMS7003;57018;50.278;19.134;2022-10-18T04:24:26;25.25;24.50;18.00
69746;PMS7003;57018;50.278;19.134;2022-10-18T04:26:52;29.50;28.25;18.75
69746;PMS7003;57018;50.278;19.134;2022-10-18T04:29:18;30.25;26.75;17.00
69746;PMS7003;57018;50.278;19.134;2022-10-18T04:31:44;34.00;31.00;18.50
69746;PMS7003;57018;50.278;19.134;2022-10-18T04:34:10;29.75;28.75;20.75
69746;PMS7003;57018;50.278;19.134;2022-10-18T04:36:36;29.00;27.25;17.50
69746;PMS7003;57018;50.278;19.134;2022-10-18T04:39:02;28.75;25.00;16.00
69746;PMS7003;57018;50.278;19.134;2022-10-18T04:41:28;23.75;23.75;16.50
69746;PMS7003;57018;50.278;19.134;2022-10-18T04:43:54;26.75;25.50;19.25
69746;PMS7003;57018;50.278;19.134;2022-10-18T04:46:21;29.75;26.50;18.75
69746;PMS7003;57018;50.278;19.134;2022-10-18T04:48:47;28.00;26.75;19.00
69746;PMS7003;57018;50.278;19.134;2022-10-18T04:51:13;33.75;32.00;19.00
69746;PMS7003;57018;50.278;19.134;2022-10-18T04:53:39;35.00;33.25;21.75
69746;PMS7003;57018;50.278;19.134;2022-10-18T04:56:05;27.25;24.00;18.00
69746;PMS7003;57018;50.278;19.134;2022-10-18T04:58:32;28.25;26.25;18.75
69746;PMS7003;57018;50.278;19.134;2022-10-18T05:00:58;28.75;28.50;18.50
69746;PMS7003;57018;50.278;19.134;2022-10-18T05:03:24;33.50;29.50;19.00
69746;PMS7003;57018;50.278;19.134;2022-10-18T05:05:50;25.25;25.25;18.25
69746;PMS7003;57018;50.278;19.134;2022-10-18T05:08:16;33.75;29.50;19.50
69746;PMS7003;57018;50.278;19.134;2022-10-18T05:10:42;30.25;28.00;20.25
69746;PMS7003;57018;50.278;19.134;2022-10-18T05:13:08;32.75;29.00;20.50
69746;PMS7003;57018;50.278;19.134;2022-10-18T05:15:35;29.75;28.25;19.75
69746;PMS7003;57018;50.278;19.134;2022-10-18T05:18:04;32.67;30.67;21.00
69746;PMS7003;57018;50.278;19.134;2022-10-18T05:20:30;29.50;27.75;19.00
69746;PMS7003;57018;50.278;19.134;2022-10-18T05:22:57;29.00;25.50;19.75
69746;PMS7003;57018;50.278;19.134;2022-10-18T05:25:23;27.25;25.75;16.00
69746;PMS7003;57018;50.278;19.134;2022-10-18T05:27:49;36.75;28.75;21.25
69746;PMS7003;57018;50.278;19.134;2022-10-18T05:30:15;27.50;27.25;20.00
69746;PMS7003;57018;50.278;19.134;2022-10-18T05:32:42;35.50;33.25;23.75
69746;PMS7003;57018;50.278;19.134;2022-10-18T05:35:08;29.75;29.25;21.25
69746;PMS7003;57018;50.278;19.134;2022-10-18T05:37:34;34.50;30.75;20.00
69746;PMS7003;57018;50.278;19.134;2022-10-18T05:40:00;25.00;21.50;16.25
69746;PMS7003;57018;50.278;19.134;2022-10-18T05:42:27;29.75;26.00;16.50
69746;PMS7003;57018;50.278;19.134;2022-10-18T05:44:53;31.50;27.00;20.75
69746;PMS7003;57018;50.278;19.134;2022-10-18T05:47:19;35.00;32.50;21.00
69746;PMS7003;57018;50.278;19.134;2022-10-18T05:49:45;29.75;29.25;20.75
69746;PMS7003;57018;50.278;19.134;2022-10-18T05:52:12;30.00;28.00;19.25
69746;PMS7003;57018;50.278;19.134;2022-10-18T05:54:38;34.75;30.50;21.75
69746;PMS7003;57018;50.278;19.134;2022-10-18T05:57:05;26.25;24.25;17.00
69746;PMS7003;57018;50.278;19.134;2022-10-18T05:59:31;30.75;27.00;18.75
69746;PMS7003;57018;50.278;19.134;2022-10-18T06:01:57;30.00;25.25;16.50
69746;PMS7003;57018;50.278;19.134;2022-10-18T06:04:23;53.75;44.75;29.50
69746;PMS7003;57018;50.278;19.134;2022-10-18T06:06:49;54.50;43.00;28.50
69746;PMS7003;57018;50.278;19.134;2022-10-18T06:09:15;53.50;42.00;28.25
69746;PMS7003;57018;50.278;19.134;2022-10-18T06:11:41;42.75;36.50;24.00
69746;PMS7003;57018;50.278;19.134;2022-10-18T06:14:08;42.50;34.75;23.00
69746;PMS7003;57018;50.278;19.134;2022-10-18T06:16:34;43.25;35.50;22.75
69746;PMS7003;57018;50.278;19.134;2022-10-18T06:19:00;47.75;35.75;23.25
69746;PMS7003;57018;50.278;19.134;2022-10-18T06:21:27;29.75;26.75;17.00
69746;PMS7003;57018;50.278;19.134;2022-10-18T06:23:56;33.25;29.00;20.75
69746;PMS7003;57018;50.278;19.134;2022-10-18T06:26:24;30.75;28.75;20.25
69746;PMS7003;57018;50.278;19.134;2022-10-18T06:28:51;29.00;27.25;17.75
69746;PMS7003;57018;50.278;19.134;2022-10-18T06:31:17;27.25;25.00;17.50
69746;PMS7003;57018;50.278;19.134;2022-10-18T06:33:45;26.25;25.25;15.75
69746;PMS7003;57018;50.278;19.134;2022-10-18T06:36:16;29.50;28.00;19.50
69746;PMS7003;57018;50.278;19.134;2022-10-18T06:38:44;22.25;22.25;17.00
69746;PMS7003;57018;50.278;19.134;2022-10-18T06:41:10;26.75;25.75;17.25
69746;PMS7003;57018;50.278;19.134;2022-10-18T06:43:36;23.00;21.25;16.50
69746;PMS7003;57018;50.278;19.134;2022-10-18T06:46:03;25.25;22.75;16.00
69746;PMS7003;57018;50.278;19.134;2022-10-18T06:48:32;20.25;17.75;15.00
69746;PMS7003;57018;50.278;19.134;2022-10-18T06:51:00;27.00;25.50;18.75
69746;PMS7003;57018;50.278;19.134;2022-10-18T06:53:32;27.75;24.75;16.50
69746;PMS7003;57018;50.278;19.134;2022-10-18T06:56:07;27.50;23.75;17.00
69746;PMS7003;57018;50.278;19.134;2022-10-18T06:58:35;28.75;25.00;18.00
69746;PMS7003;57018;50.278;19.134;2022-10-18T07:01:08;24.25;24.25;15.75
69746;PMS7003;57018;50.278;19.134;2022-10-18T07:03:36;27.25;25.50;17.00
69746;PMS7003;57018;50.278;19.134;2022-10-18T07:06:03;29.00;27.00;17.75
69746;PMS7003;57018;50.278;19.134;2022-10-18T07:08:30;32.00;23.75;17.25
69746;PMS7003;57018;50.278;19.134;2022-10-18T07:10:57;27.75;26.00;19.00
69746;PMS7003;57018;50.278;19.134;2022-10-18T07:13:24;24.50;21.50;16.25
69746;PMS7003;57018;50.278;19.134;2022-10-18T07:16:01;25.25;24.00;18.25
69746;PMS7003;57018;50.278;19.134;2022-10-18T07:18:33;27.00;26.75;17.50
69746;PMS7003;57018;50.278;19.134;2022-10-18T07:21:02;21.00;20.75;13.75
69746;PMS7003;57018;50.278;19.134;2022-10-18T07:23:33;20.00;20.00;14.75
69746;PMS7003;57018;50.278;19.134;2022-10-18T07:26:02;21.50;19.75;13.00
69746;PMS7003;57018;50.278;19.134;2022-10-18T07:28:30;20.25;19.00;13.00
69746;PMS7003;57018;50.278;19.134;2022-10-18T07:30:56;21.25;17.50;12.75
69746;PMS7003;57018;50.278;19.134;2022-10-18T07:33:27;21.75;21.00;16.50
69746;PMS7003;57018;50.278;19.134;2022-10-18T07:35:53;26.00;24.75;17.00
69746;PMS7003;57018;50.278;19.134;2022-10-18T07:38:19;26.25;22.50;16.50
69746;PMS7003;57018;50.278;19.134;2022-10-18T07:40:47;17.75;16.00;12.25
69746;PMS7003;57018;50.278;19.134;2022-10-18T07:43:13;24.75;22.75;17.75
69746;PMS7003;57018;50.278;19.134;2022-10-18T07:45:39;15.25;15.25;12.00
69746;PMS7003;57018;50.278;19.134;2022-10-18T07:48:05;20.00;20.00;14.00
69746;PMS7003;57018;50.278;19.134;2022-10-18T07:50:31;16.50;16.50;13.25
69746;PMS7003;57018;50.278;19.134;2022-10-18T07:52:57;21.50;18.75;14.25
69746;PMS7003;57018;50.278;19.134;2022-10-18T07:55:23;21.75;21.75;16.00
69746;PMS7003;57018;50.278;19.134;2022-10-18T07:57:49;22.50;22.50;14.00
69746;PMS7003;57018;50.278;19.134;2022-10-18T08:00:15;21.75;20.00;14.00
69746;PMS7003;57018;50.278;19.134;2022-10-18T08:02:42;15.50;14.75;10.50
69746;PMS7003;57018;50.278;19.134;2022-10-18T08:05:08;18.75;18.75;12.75
69746;PMS7003;57018;50.278;19.134;2022-10-18T08:07:34;15.25;14.50;9.50
69746;PMS7003;57018;50.278;19.134;2022-10-18T08:10:00;17.25;16.50;10.50
69746;PMS7003;57018;50.278;19.134;2022-10-18T08:12:26;12.75;12.75;8.50
69746;PMS7003;57018;50.278;19.134;2022-10-18T08:14:52;15.25;14.50;10.75
69746;PMS7003;57018;50.278;19.134;2022-10-18T08:17:18;17.00;14.75;9.50
69746;PMS7003;57018;50.278;19.134;2022-10-18T08:19:44;14.75;14.50;8.75
69746;PMS7003;57018;50.278;19.134;2022-10-18T08:22:10;16.50;16.50;10.00
69746;PMS7003;57018;50.278;19.134;2022-10-18T08:24:36;16.75;14.25;10.25
69746;PMS7003;57018;50.278;19.134;2022-10-18T08:27:03;17.25;16.25;10.50
69746;PMS7003;57018;50.278;19.134;2022-10-18T08:29:29;13.75;12.25;8.00
69746;PMS7003;57018;50.278;19.134;2022-10-18T08:31:55;16.25;14.75;10.50
69746;PMS7003;57018;50.278;19.134;2022-10-18T08:34:21;20.00;17.50;10.75
69746;PMS7003;57018;50.278;19.134;2022-10-18T08:36:47;17.25;17.25;13.00
69746;PMS7003;57018;50.278;19.134;2022-10-18T08:39:13;16.25;15.25;10.50
69746;PMS7003;57018;50.278;19.134;2022-10-18T08:42:22;15.25;13.50;11.25
69746;PMS7003;57018;50.278;19.134;2022-10-18T08:44:21;21.00;18.50;11.25
69746;PMS7003;57018;50.278;19.134;2022-10-18T08:47:02;15.00;14.00;9.50
69746;PMS7003;57018;50.278;19.134;2022-10-18T08:54:55;14.00;12.00;8.75
69746;PMS7003;57018;50.278;19.134;2022-10-18T08:57:29;17.25;15.25;10.50
69746;PMS7003;57018;50.278;19.134;2022-10-18T08:59:57;16.00;14.75;10.25
69746;PMS7003;57018;50.278;19.134;2022-10-18T09:02:27;13.75;13.50;7.50
69746;PMS7003;57018;50.278;19.134;2022-10-18T09:10:39;13.25;13.25;8.50
69746;PMS7003;57018;50.278;19.134;2022-10-18T09:16:03;15.50;15.50;13.00
69746;PMS7003;57018;50.278;19.134;2022-10-18T09:18:45;15.00;14.00;9.25
69746;PMS7003;57018;50.278;19.134;2022-10-18T09:23:47;13.00;12.00;8.50
69746;PMS7003;57018;50.278;19.134;2022-10-18T09:26:19;13.50;13.50;9.75
69746;PMS7003;57018;50.278;19.134;2022-10-18T09:34:31;14.25;13.75;8.00
69746;PMS7003;57018;50.278;19.134;2022-10-18T09:37:15;13.25;12.00;8.50
69746;PMS7003;57018;50.278;19.134;2022-10-18T09:39:44;16.25;14.75;9.00
69746;PMS7003;57018;50.278;19.134;2022-10-18T09:44:46;13.50;12.75;9.25
69746;PMS7003;57018;50.278;19.134;2022-10-18T09:47:17;12.50;11.75;8.25
69746;PMS7003;57018;50.278;19.134;2022-10-18T09:49:54;15.25;15.25;11.25
69746;PMS7003;57018;50.278;19.134;2022-10-18T09:52:20;19.75;15.75;11.00
69746;PMS7003;57018;50.278;19.134;2022-10-18T09:54:50;16.50;11.75;8.50
69746;PMS7003;57018;50.278;19.134;2022-10-18T09:57:24;14.75;11.00;7.50
69746;PMS7003;57018;50.278;19.134;2022-10-18T09:59:52;15.50;11.50;7.75
69746;PMS7003;57018;50.278;19.134;2022-10-18T10:02:19;9.00;8.75;6.00
69746;PMS7003;57018;50.278;19.134;2022-10-18T10:04:47;13.25;10.50;8.25
69746;PMS7003;57018;50.278;19.134;2022-10-18T10:07:18;18.50;15.50;10.25
69746;PMS7003;57018;50.278;19.134;2022-10-18T10:09:48;13.00;12.75;9.50
69746;PMS7003;57018;50.278;19.134;2022-10-18T10:12:26;11.50;11.50;8.25
69746;PMS7003;57018;50.278;19.134;2022-10-18T10:15:05;11.25;11.25;9.25
69746;PMS7003;57018;50.278;19.134;2022-10-18T10:17:58;16.50;15.50;9.25
69746;PMS7003;57018;50.278;19.134;2022-10-18T10:20:47;14.50;12.50;9.25
69746;PMS7003;57018;50.278;19.134;2022-10-18T10:23:19;12.50;11.75;8.50
69746;PMS7003;57018;50.278;19.134;2022-10-18T10:25:54;15.25;15.25;9.00
69746;PMS7003;57018;50.278;19.134;2022-10-18T10:28:27;14.75;12.25;9.50
69746;PMS7003;57018;50.278;19.134;2022-10-18T10:36:49;11.25;10.25;7.00
69746;PMS7003;57018;50.278;19.134;2022-10-18T10:39:18;11.00;11.00;9.25
69746;PMS7003;57018;50.278;19.134;2022-10-18T10:41:46;10.50;10.50;7.25
69746;PMS7003;57018;50.278;19.134;2022-10-18T10:44:15;13.75;11.25;7.50
69746;PMS7003;57018;50.278;19.134;2022-10-18T10:46:43;13.25;12.50;9.25
69746;PMS7003;57018;50.278;19.134;2022-10-18T10:49:19;14.00;12.75;8.00
69746;PMS7003;57018;50.278;19.134;2022-10-18T10:52:00;10.00;9.50;7.00
69746;PMS7003;57018;50.278;19.134;2022-10-18T10:54:28;13.50;13.25;10.00
69746;PMS7003;57018;50.278;19.134;2022-10-18T10:59:48;15.00;12.75;9.25
69746;PMS7003;57018;50.278;19.134;2022-10-18T11:02:20;11.50;11.00;8.75
69746;PMS7003;57018;50.278;19.134;2022-10-18T11:04:53;11.75;11.00;9.25
69746;PMS7003;57018;50.278;19.134;2022-10-18T11:07:22;12.25;10.75;8.25
69746;PMS7003;57018;50.278;19.134;2022-10-18T11:12:39;12.00;10.75;8.75
69746;PMS7003;57018;50.278;19.134;2022-10-18T11:15:21;8.50;8.50;7.50
69746;PMS7003;57018;50.278;19.134;2022-10-18T11:20:26;15.50;12.75;8.50
69746;PMS7003;57018;50.278;19.134;2022-10-18T11:23:09;10.75;10.00;8.75
69746;PMS7003;57018;50.278;19.134;2022-10-18T11:31:06;12.25;10.75;8.00
69746;PMS7003;57018;50.278;19.134;2022-10-18T11:36:28;12.75;9.75;8.00
69746;PMS7003;57018;50.278;19.134;2022-10-18T11:39:24;12.50;12.50;8.75
69746;PMS7003;57018;50.278;19.134;2022-10-18T11:42:03;12.25;10.75;7.75
69746;PMS7003;57018;50.278;19.134;2022-10-18T11:44:35;11.00;11.00;8.00
69746;PMS7003;57018;50.278;19.134;2022-10-18T11:53:19;11.50;11.00;8.00
69746;PMS7003;57018;50.278;19.134;2022-10-18T11:55:40;10.75;9.50;8.50
69746;PMS7003;57018;50.278;19.134;2022-10-18T12:00:53;8.25;8.25;4.50
69746;PMS7003;57018;50.278;19.134;2022-10-18T12:03:57;11.50;11.50;8.25
69746;PMS7003;57018;50.278;19.134;2022-10-18T12:06:17;10.25;10.25;8.75
69746;PMS7003;57018;50.278;19.134;2022-10-18T12:08:43;14.00;13.00;8.25
69746;PMS7003;57018;50.278;19.134;2022-10-18T12:11:19;18.50;13.50;10.00
69746;PMS7003;57018;50.278;19.134;2022-10-18T12:13:51;15.75;13.00;9.25
69746;PMS7003;57018;50.278;19.134;2022-10-18T12:16:23;13.75;11.25;8.25
69746;PMS7003;57018;50.278;19.134;2022-10-18T12:21:22;11.50;11.25;7.75
69746;PMS7003;57018;50.278;19.134;2022-10-18T12:23:52;11.00;11.00;9.25
69746;PMS7003;57018;50.278;19.134;2022-10-18T12:26:23;11.50;11.25;9.25
69746;PMS7003;57018;50.278;19.134;2022-10-18T12:31:27;11.00;11.00;8.50
69746;PMS7003;57018;50.278;19.134;2022-10-18T12:36:43;11.50;10.00;7.25
69746;PMS7003;57018;50.278;19.134;2022-10-18T12:39:10;13.50;10.00;8.50
69746;PMS7003;57018;50.278;19.134;2022-10-18T12:41:41;15.00;11.75;8.25
69746;PMS7003;57018;50.278;19.134;2022-10-18T12:44:18;12.50;10.25;8.25
69746;PMS7003;57018;50.278;19.134;2022-10-18T12:46:53;11.25;11.25;7.50
69746;PMS7003;57018;50.278;19.134;2022-10-18T12:49:28;13.75;11.25;9.00
69746;PMS7003;57018;50.278;19.134;2022-10-18T12:51:57;9.50;9.50;6.50
69746;PMS7003;57018;50.278;19.134;2022-10-18T12:54:26;20.50;19.50;13.25
69746;PMS7003;57018;50.278;19.134;2022-10-18T12:56:55;13.25;12.75;10.25
69746;PMS7003;57018;50.278;19.134;2022-10-18T13:04:36;11.00;10.25;6.75
69746;PMS7003;57018;50.278;19.134;2022-10-18T13:09:40;16.25;16.25;10.50
69746;PMS7003;57018;50.278;19.134;2022-10-18T13:17:34;13.75;12.75;8.25
69746;PMS7003;57018;50.278;19.134;2022-10-18T13:20:25;18.75;14.00;9.00
69746;PMS7003;57018;50.278;19.134;2022-10-18T13:26:28;14.00;13.00;9.25
69746;PMS7003;57018;50.278;19.134;2022-10-18T13:31:48;11.50;11.50;8.00
69746;PMS7003;57018;50.278;19.134;2022-10-18T13:34:32;17.50;17.50;11.75
69746;PMS7003;57018;50.278;19.134;2022-10-18T13:39:39;12.75;11.50;8.25
69746;PMS7003;57018;50.278;19.134;2022-10-18T13:44:54;16.00;15.00;10.00
69746;PMS7003;57018;50.278;19.134;2022-10-18T13:47:31;15.00;13.50;10.50
69746;PMS7003;57018;50.278;19.134;2022-10-18T13:52:39;17.50;13.50;10.00
69746;PMS7003;57018;50.278;19.134;2022-10-18T14:06:38;17.25;13.75;10.00
69746;PMS7003;57018;50.278;19.134;2022-10-18T14:11:40;13.50;12.25;9.50
69746;PMS7003;57018;50.278;19.134;2022-10-18T14:14:28;12.50;12.50;8.75
69746;PMS7003;57018;50.278;19.134;2022-10-18T14:17:11;14.25;14.25;10.25
69746;PMS7003;57018;50.278;19.134;2022-10-18T14:19:39;14.00;13.00;9.50
69746;PMS7003;57018;50.278;19.134;2022-10-18T14:22:20;15.75;12.75;8.75
69746;PMS7003;57018;50.278;19.134;2022-10-18T14:24:52;14.25;14.25;10.50
69746;PMS7003;57018;50.278;19.134;2022-10-18T14:27:27;19.00;16.25;11.50
69746;PMS7003;57018;50.278;19.134;2022-10-18T14:32:44;15.00;12.75;9.00
69746;PMS7003;57018;50.278;19.134;2022-10-18T14:35:19;19.25;18.75;12.00
69746;PMS7003;57018;50.278;19.134;2022-10-18T14:37:49;14.50;14.50;10.25
69746;PMS7003;57018;50.278;19.134;2022-10-18T14:40:27;17.00;13.00;9.50
69746;PMS7003;57018;50.278;19.134;2022-10-18T14:43:06;15.25;15.25;10.75
69746;PMS7003;57018;50.278;19.134;2022-10-18T14:45:41;18.00;16.25;11.25
69746;PMS7003;57018;50.278;19.134;2022-10-18T14:48:14;17.00;15.75;11.50
69746;PMS7003;57018;50.278;19.134;2022-10-18T14:50:43;14.50;14.50;9.75
69746;PMS7003;57018;50.278;19.134;2022-10-18T14:53:13;18.00;16.00;11.75
69746;PMS7003;57018;50.278;19.134;2022-10-18T14:55:51;18.75;16.75;11.50
69746;PMS7003;57018;50.278;19.134;2022-10-18T14:58:20;15.75;15.75;10.25
69746;PMS7003;57018;50.278;19.134;2022-10-18T15:00:46;17.50;16.50;11.25
69746;PMS7003;57018;50.278;19.134;2022-10-18T15:03:13;19.25;17.25;13.25
69746;PMS7003;57018;50.278;19.134;2022-10-18T15:05:51;16.75;16.50;11.25
69746;PMS7003;57018;50.278;19.134;2022-10-18T15:08:24;19.00;17.50;12.50
69746;PMS7003;57018;50.278;19.134;2022-10-18T15:10:53;16.75;16.00;10.75
69746;PMS7003;57018;50.278;19.134;2022-10-18T15:13:20;17.50;16.25;11.50
69746;PMS7003;57018;50.278;19.134;2022-10-18T15:15:47;20.00;17.50;11.25
69746;PMS7003;57018;50.278;19.134;2022-10-18T15:18:23;18.75;16.75;12.50
69746;PMS7003;57018;50.278;19.134;2022-10-18T15:21:05;22.00;19.00;14.00
69746;PMS7003;57018;50.278;19.134;2022-10-18T15:23:35;30.50;29.00;20.00
69746;PMS7003;57018;50.278;19.134;2022-10-18T15:26:02;18.75;18.75;14.00
69746;PMS7003;57018;50.278;19.134;2022-10-18T15:28:34;22.50;21.25;15.50
69746;PMS7003;57018;50.278;19.134;2022-10-18T15:31:00;21.25;19.50;13.25
69746;PMS7003;57018;50.278;19.134;2022-10-18T15:33:27;18.50;18.50;12.00
69746;PMS7003;57018;50.278;19.134;2022-10-18T15:36:16;22.25;20.00;15.25
69746;PMS7003;57018;50.278;19.134;2022-10-18T15:38:40;21.00;20.00;13.50
69746;PMS7003;57018;50.278;19.134;2022-10-18T15:44:21;26.50;22.75;16.75
69746;PMS7003;57018;50.278;19.134;2022-10-18T15:46:52;20.75;17.50;13.50
69746;PMS7003;57018;50.278;19.134;2022-10-18T15:55:40;25.50;22.25;15.50
69746;PMS7003;57018;50.278;19.134;2022-10-18T15:57:49;22.00;21.50;15.25
69746;PMS7003;57018;50.278;19.134;2022-10-18T16:00:17;23.25;20.00;13.25
69746;PMS7003;57018;50.278;19.134;2022-10-18T16:02:44;17.50;17.50;12.50
69746;PMS7003;57018;50.278;19.134;2022-10-18T16:05:13;21.75;20.75;13.75
69746;PMS7003;57018;50.278;19.134;2022-10-18T16:07:41;29.25;25.00;17.75
69746;PMS7003;57018;50.278;19.134;2022-10-18T16:10:11;29.75;26.75;19.00
69746;PMS7003;57018;50.278;19.134;2022-10-18T16:12:38;25.75;24.50;16.00
69746;PMS7003;57018;50.278;19.134;2022-10-18T16:15:04;27.00;24.00;16.75
69746;PMS7003;57018;50.278;19.134;2022-10-18T16:17:30;30.50;26.00;17.75
69746;PMS7003;57018;50.278;19.134;2022-10-18T16:19:57;25.50;20.50;15.25